Time;durP1;ratioP1;P1;durP2;ratioP2;P2;SDS_P1;SDS_P2;PMS_P1;PMS_P2;Temp;Humidity;BMP_temperature;BMP_pressure;BME280_temperature;BME280_humidity;BME280_pressure;Samples;Min_cycle;Max_cycle;Signal;HPM_P1;HPM_P2
2023/12/02 00:00:14;;;;;;;6.47;4.25;;;3.30;92.90;;;;;;5094240;28;20228;-73
2023/12/02 00:02:42;;;;;;;21.60;9.05;;;3.30;92.80;;;;;;5093921;28;20209;-73
2023/12/02 00:05:09;;;;;;;8.15;6.00;;;3.30;92.80;;;;;;5093946;28;20225;-73
2023/12/02 00:07:36;;;;;;;6.85;4.43;;;3.30;92.80;;;;;;5093510;28;20572;-74
2023/12/02 00:10:03;;;;;;;7.10;4.75;;;3.30;92.70;;;;;;5093757;28;20304;-73
2023/12/02 00:12:30;;;;;;;6.30;4.60;;;3.30;92.70;;;;;;5093957;28;20213;-73
2023/12/02 00:14:57;;;;;;;7.38;5.05;;;3.30;92.60;;;;;;5094184;28;20558;-72
2023/12/02 00:17:24;;;;;;;6.70;4.80;;;3.20;92.60;;;;;;5094332;28;20193;-73
2023/12/02 00:19:52;;;;;;;6.50;5.00;;;3.30;92.80;;;;;;5093979;28;20220;-72
2023/12/02 00:22:19;;;;;;;6.45;5.07;;;3.30;92.80;;;;;;5093779;28;20225;-72
2023/12/02 00:24:46;;;;;;;6.70;4.70;;;3.30;92.70;;;;;;5093809;28;20652;-72
2023/12/02 00:27:13;;;;;;;5.38;4.57;;;3.30;92.60;;;;;;5093639;28;20228;-72
2023/12/02 00:29:40;;;;;;;8.85;5.63;;;3.30;92.60;;;;;;5093800;28;20221;-73
2023/12/02 00:32:07;;;;;;;9.00;5.20;;;3.30;92.60;;;;;;5093896;28;20296;-73
2023/12/02 00:34:34;;;;;;;6.43;4.15;;;3.30;92.60;;;;;;5092279;28;20648;-73
2023/12/02 00:37:02;;;;;;;7.22;4.53;;;3.20;92.50;;;;;;5093561;28;20224;-73
2023/12/02 00:39:29;;;;;;;6.30;4.43;;;3.30;92.50;;;;;;5093482;28;20225;-73
2023/12/02 00:41:56;;;;;;;6.47;4.85;;;3.30;92.50;;;;;;5093469;28;20232;-73
2023/12/02 00:44:23;;;;;;;7.68;4.43;;;3.20;92.50;;;;;;5093823;28;20244;-73
2023/12/02 00:46:50;;;;;;;5.95;4.38;;;3.20;92.40;;;;;;5093711;28;20213;-73
2023/12/02 00:49:17;;;;;;;5.63;4.05;;;3.30;92.40;;;;;;5093286;28;20233;-73
2023/12/02 00:51:43;;;;;;;4.93;3.55;;;3.30;92.40;;;;;;5093298;28;20304;-73
2023/12/02 00:54:12;;;;;;;5.50;4.32;;;3.20;92.30;;;;;;5093294;28;20185;-73
2023/12/02 00:56:39;;;;;;;4.65;3.70;;;3.20;92.20;;;;;;5093573;28;20221;-72
2023/12/02 00:59:05;;;;;;;7.35;4.93;;;3.20;92.20;;;;;;5093595;28;20216;-72
2023/12/02 01:01:32;;;;;;;5.70;4.10;;;3.20;92.30;;;;;;5093726;28;20252;-72
2023/12/02 01:03:59;;;;;;;6.38;3.85;;;3.20;92.30;;;;;;5093556;28;20225;-73
2023/12/02 01:06:26;;;;;;;5.78;4.13;;;3.20;92.50;;;;;;5093170;28;20236;-73
2023/12/02 01:08:53;;;;;;;6.75;4.55;;;3.20;92.40;;;;;;5093509;28;20243;-73
2023/12/02 01:11:21;;;;;;;6.15;4.38;;;3.20;92.50;;;;;;5093368;28;20256;-72
2023/12/02 01:13:48;;;;;;;6.28;4.07;;;3.20;92.40;;;;;;5093119;28;20700;-73
2023/12/02 01:16:14;;;;;;;5.15;3.42;;;3.20;92.30;;;;;;5093421;28;20609;-72
2023/12/02 01:18:41;;;;;;;7.80;4.50;;;3.20;92.20;;;;;;5092775;28;20221;-72
2023/12/02 01:21:08;;;;;;;9.32;5.72;;;3.20;92.10;;;;;;5093163;28;20526;-72
2023/12/02 01:23:35;;;;;;;7.35;5.18;;;3.20;92.20;;;;;;5093043;28;20648;-73
2023/12/02 01:26:02;;;;;;;8.23;4.72;;;3.20;92.30;;;;;;5092783;28;20217;-73
2023/12/02 01:28:30;;;;;;;6.07;4.00;;;3.20;92.30;;;;;;5092896;28;20224;-73
2023/12/02 01:30:57;;;;;;;6.45;4.25;;;3.10;92.20;;;;;;5093128;28;20630;-73
2023/12/02 01:33:24;;;;;;;7.15;3.92;;;3.10;92.30;;;;;;5093146;28;20621;-76
2023/12/02 01:35:51;;;;;;;6.57;4.40;;;3.10;92.30;;;;;;5093235;28;20605;-73
2023/12/02 01:38:17;;;;;;;5.40;3.80;;;3.20;92.20;;;;;;5092317;28;20213;-73
2023/12/02 01:40:44;;;;;;;6.28;4.00;;;3.10;92.20;;;;;;5092836;28;20694;-73
2023/12/02 01:43:23;;;;;;;7.30;5.15;;;3.10;92.20;;;;;;5093251;28;20588;-73
2023/12/02 01:45:51;;;;;;;6.88;4.45;;;3.10;92.10;;;;;;5093238;28;20242;-72
2023/12/02 01:48:19;;;;;;;5.85;3.90;;;3.10;92.00;;;;;;5095155;28;20225;-73
2023/12/02 01:50:46;;;;;;;5.15;3.95;;;3.10;92.40;;;;;;5096920;28;20720;-72
2023/12/02 01:53:13;;;;;;;5.28;3.63;;;3.00;92.00;;;;;;5097047;28;20248;-73
2023/12/02 01:55:40;;;;;;;5.82;4.20;;;3.10;92.10;;;;;;5096793;28;20302;-78
2023/12/02 01:58:08;;;;;;;6.47;4.68;;;3.00;92.10;;;;;;5096848;28;20239;-73
2023/12/02 02:00:35;;;;;;;5.95;4.65;;;3.00;92.10;;;;;;5096705;28;20252;-73
2023/12/02 02:03:03;;;;;;;5.35;3.70;;;3.00;92.10;;;;;;5096645;28;20196;-72
2023/12/02 02:05:32;;;;;;;5.28;3.80;;;3.00;92.50;;;;;;5096741;28;20189;-73
2023/12/02 02:07:58;;;;;;;4.88;4.10;;;3.00;92.30;;;;;;5096664;28;20280;-73
2023/12/02 02:10:25;;;;;;;5.95;3.95;;;3.00;92.40;;;;;;5096519;28;20245;-72
2023/12/02 02:12:52;;;;;;;7.70;5.35;;;3.00;92.40;;;;;;5096159;28;20238;-72
2023/12/02 02:15:19;;;;;;;6.70;4.72;;;3.00;92.40;;;;;;5096495;28;20221;-72
2023/12/02 02:17:46;;;;;;;5.10;3.95;;;3.00;92.40;;;;;;5096537;28;20228;-73
2023/12/02 02:20:14;;;;;;;4.97;3.83;;;3.00;92.30;;;;;;5096109;28;20277;-73
2023/12/02 02:22:43;;;;;;;10.15;5.40;;;3.00;92.40;;;;;;5096103;28;20225;-72
2023/12/02 02:25:10;;;;;;;7.30;4.10;;;3.00;92.20;;;;;;5096331;28;20224;-72
2023/12/02 02:27:37;;;;;;;6.22;4.13;;;3.00;92.30;;;;;;5096208;28;20272;-73
2023/12/02 02:30:05;;;;;;;7.40;4.75;;;3.00;92.30;;;;;;5096486;28;20291;-75
2023/12/02 02:32:32;;;;;;;6.15;4.70;;;3.00;92.20;;;;;;5095531;28;20209;-72
2023/12/02 02:34:59;;;;;;;5.70;3.90;;;3.00;92.10;;;;;;5094172;28;20268;-72
2023/12/02 02:37:26;;;;;;;6.00;4.63;;;3.00;92.00;;;;;;5095803;28;20215;-72
2023/12/02 02:39:54;;;;;;;5.13;3.90;;;3.00;91.90;;;;;;5096024;28;20303;-74
2023/12/02 02:42:21;;;;;;;43.38;13.85;;;3.00;91.90;;;;;;5095527;28;20236;-73
2023/12/02 02:44:48;;;;;;;5.55;4.47;;;3.00;91.90;;;;;;5095793;28;20251;-73
2023/12/02 02:47:15;;;;;;;5.72;4.00;;;3.00;91.80;;;;;;5095754;28;20220;-73
2023/12/02 02:49:41;;;;;;;6.07;4.47;;;3.00;91.80;;;;;;5095714;28;20229;-73
2023/12/02 02:52:08;;;;;;;6.55;4.25;;;3.00;91.70;;;;;;5095228;28;20294;-73
2023/12/02 02:54:35;;;;;;;5.97;4.15;;;3.00;91.50;;;;;;5095613;28;20229;-73
2023/12/02 02:57:04;;;;;;;7.05;4.68;;;3.00;91.50;;;;;;5095550;28;20221;-75
2023/12/02 02:59:31;;;;;;;6.40;4.50;;;3.00;91.40;;;;;;5095256;28;20277;-73
2023/12/02 03:01:58;;;;;;;7.18;4.78;;;2.90;91.80;;;;;;5095759;28;20271;-73
2023/12/02 03:04:25;;;;;;;7.30;4.75;;;2.80;91.50;;;;;;5095425;28;20228;-73
2023/12/02 03:06:52;;;;;;;6.90;4.70;;;2.80;91.50;;;;;;5095350;28;20221;-72
2023/12/02 03:09:19;;;;;;;6.68;4.20;;;2.80;91.40;;;;;;5095486;28;20225;-74
2023/12/02 03:11:48;;;;;;;7.15;4.63;;;2.80;91.30;;;;;;5095408;28;20209;-72
2023/12/02 03:14:17;;;;;;;6.75;4.07;;;2.70;91.30;;;;;;5095121;28;20199;-75
2023/12/02 03:16:44;;;;;;;6.50;4.97;;;2.80;91.50;;;;;;5095139;28;20193;-73
2023/12/02 03:19:10;;;;;;;5.78;4.30;;;2.80;91.70;;;;;;5094771;28;20205;-73
2023/12/02 03:21:37;;;;;;;6.43;4.75;;;2.70;91.60;;;;;;5095083;28;20607;-74
2023/12/02 03:24:05;;;;;;;7.88;4.35;;;2.70;91.50;;;;;;5095082;28;20216;-72
2023/12/02 03:26:32;;;;;;;8.00;4.63;;;2.70;91.80;;;;;;5094986;28;20243;-73
2023/12/02 03:28:59;;;;;;;8.30;5.50;;;2.70;91.80;;;;;;5094915;28;20257;-73
2023/12/02 03:31:27;;;;;;;7.25;5.13;;;2.80;91.90;;;;;;5094780;28;20296;-72
2023/12/02 03:33:54;;;;;;;7.03;5.82;;;2.80;91.80;;;;;;5094521;28;20232;-72
2023/12/02 03:36:20;;;;;;;6.40;4.43;;;2.80;91.80;;;;;;5094433;28;20338;-73
2023/12/02 03:38:47;;;;;;;6.22;4.65;;;2.80;91.80;;;;;;5094429;28;20225;-73
2023/12/02 03:41:14;;;;;;;46.83;21.08;;;2.80;91.80;;;;;;5094618;28;20232;-73
2023/12/02 03:43:41;;;;;;;8.70;6.40;;;2.80;91.80;;;;;;5094618;28;20229;-73
2023/12/02 03:46:08;;;;;;;5.28;4.13;;;2.80;91.80;;;;;;5094269;28;20225;-73
2023/12/02 03:48:37;;;;;;;7.05;4.28;;;2.80;91.70;;;;;;5094638;28;20272;-73
2023/12/02 03:51:04;;;;;;;7.80;5.03;;;2.80;91.50;;;;;;5094508;28;20217;-73
2023/12/02 03:53:34;;;;;;;6.70;5.05;;;2.80;91.50;;;;;;5094186;28;20191;-72
2023/12/02 03:56:01;;;;;;;6.80;4.80;;;2.80;91.50;;;;;;5094482;28;20190;-72
2023/12/02 03:58:28;;;;;;;7.30;4.78;;;2.70;91.50;;;;;;5094390;28;20221;-73
2023/12/02 04:00:55;;;;;;;9.40;4.95;;;2.70;91.50;;;;;;5094568;28;20260;-73
2023/12/02 04:03:22;;;;;;;6.55;4.20;;;2.70;91.40;;;;;;5094589;28;20186;-73
2023/12/02 04:05:51;;;;;;;6.35;4.55;;;2.70;91.40;;;;;;5094027;28;20194;-72
2023/12/02 04:08:18;;;;;;;6.70;5.32;;;2.70;91.40;;;;;;5093658;28;20225;-73
2023/12/02 04:10:44;;;;;;;7.20;5.47;;;2.70;91.40;;;;;;5093295;28;20237;-73
2023/12/02 04:13:11;;;;;;;5.90;4.63;;;2.70;91.40;;;;;;5094313;28;20221;-72
2023/12/02 04:15:38;;;;;;;7.38;5.60;;;2.70;91.40;;;;;;5094043;28;20220;-72
2023/12/02 04:18:05;;;;;;;7.70;4.97;;;2.70;91.50;;;;;;5094116;28;20237;-72
2023/12/02 04:20:32;;;;;;;15.77;8.98;;;2.70;91.40;;;;;;5094044;28;20584;-73
2023/12/02 04:23:00;;;;;;;7.80;5.88;;;2.70;91.30;;;;;;5093896;28;20233;-72
2023/12/02 04:25:27;;;;;;;5.97;4.72;;;2.60;91.20;;;;;;5093924;28;20244;-73
2023/12/02 04:27:54;;;;;;;7.13;5.00;;;2.60;91.20;;;;;;5093635;28;20238;-73
2023/12/02 04:30:21;;;;;;;6.28;5.15;;;2.70;91.40;;;;;;5093528;28;20228;-73
2023/12/02 04:32:48;;;;;;;8.65;6.00;;;2.70;91.10;;;;;;5093749;28;20300;-72
2023/12/02 04:35:15;;;;;;;8.48;5.70;;;2.60;90.90;;;;;;5092697;28;20193;-73
2023/12/02 04:37:42;;;;;;;6.50;4.78;;;2.60;90.90;;;;;;5093823;28;20227;-73
2023/12/02 04:40:11;;;;;;;10.73;6.05;;;2.60;91.10;;;;;;5093453;28;20651;-73
2023/12/02 04:42:39;;;;;;;7.47;4.85;;;2.60;91.10;;;;;;5093419;28;20193;-73
2023/12/02 04:45:08;;;;;;;6.90;4.70;;;2.60;91.10;;;;;;5093466;28;20644;-72
2023/12/02 04:47:36;;;;;;;5.90;4.85;;;2.50;91.00;;;;;;5093622;28;20284;-72
2023/12/02 04:50:03;;;;;;;8.90;4.70;;;2.50;91.00;;;;;;5093662;28;20276;-72
2023/12/02 04:52:30;;;;;;;8.55;5.60;;;2.50;91.10;;;;;;5092528;28;20548;-73
2023/12/02 04:54:57;;;;;;;7.63;5.22;;;2.60;91.20;;;;;;5093816;28;20247;-72
2023/12/02 04:57:26;;;;;;;6.90;4.40;;;2.60;91.50;;;;;;5093773;28;20296;-73
2023/12/02 04:59:53;;;;;;;7.32;5.03;;;2.60;91.50;;;;;;5093706;28;20186;-72
2023/12/02 05:02:20;;;;;;;5.40;3.85;;;2.60;91.20;;;;;;5093521;28;20740;-73
2023/12/02 05:04:47;;;;;;;8.55;6.10;;;2.60;91.10;;;;;;5093847;28;20524;-73
2023/12/02 05:07:14;;;;;;;6.60;4.72;;;2.60;91.10;;;;;;5093692;28;20614;-72
2023/12/02 05:09:41;;;;;;;6.70;4.68;;;2.60;91.00;;;;;;5093338;28;20217;-72
2023/12/02 05:12:09;;;;;;;7.43;4.53;;;2.60;91.00;;;;;;5093111;28;20240;-75
2023/12/02 05:14:38;;;;;;;7.57;5.25;;;2.50;90.90;;;;;;5093455;28;20229;-72
2023/12/02 05:17:05;;;;;;;7.47;4.72;;;2.60;91.00;;;;;;5093441;28;20228;-72
2023/12/02 05:19:32;;;;;;;7.18;4.90;;;2.50;91.00;;;;;;5093537;28;20185;-73
2023/12/02 05:21:59;;;;;;;6.60;4.15;;;2.50;91.00;;;;;;5094801;28;20659;-73
2023/12/02 05:24:27;;;;;;;7.60;4.40;;;2.50;91.00;;;;;;5096564;28;20634;-72
2023/12/02 05:26:53;;;;;;;6.97;4.72;;;2.50;91.00;;;;;;5097333;28;20189;-73
2023/12/02 05:29:20;;;;;;;8.45;5.50;;;2.50;91.00;;;;;;5096974;28;20285;-72
2023/12/02 05:31:49;;;;;;;6.82;4.38;;;2.50;90.90;;;;;;5096815;28;20221;-72
2023/12/02 05:34:16;;;;;;;6.35;4.38;;;2.50;90.90;;;;;;5097244;28;20189;-72
2023/12/02 05:36:46;;;;;;;6.43;4.63;;;2.50;90.90;;;;;;5097319;28;20185;-72
2023/12/02 05:39:13;;;;;;;5.90;3.78;;;2.50;90.70;;;;;;5096720;28;20200;-75
2023/12/02 05:41:41;;;;;;;6.80;4.68;;;2.50;90.80;;;;;;5096381;28;20189;-73
2023/12/02 05:44:08;;;;;;;7.38;4.50;;;2.50;90.80;;;;;;5097281;28;20196;-72
2023/12/02 05:46:35;;;;;;;20.67;9.40;;;2.50;90.90;;;;;;5096913;28;20228;-73
2023/12/02 05:49:03;;;;;;;9.95;6.30;;;2.50;90.90;;;;;;5096600;28;20232;-72
2023/12/02 05:51:33;;;;;;;7.90;5.10;;;2.50;90.70;;;;;;5096180;28;20225;-73
2023/12/02 05:54:00;;;;;;;7.03;4.65;;;2.50;90.70;;;;;;5096548;28;20238;-72
2023/12/02 05:56:27;;;;;;;7.22;4.85;;;2.50;90.70;;;;;;5096805;28;20189;-73
2023/12/02 05:58:54;;;;;;;7.10;4.43;;;2.50;90.70;;;;;;5096623;28;20683;-72
2023/12/02 06:01:22;;;;;;;9.35;5.93;;;2.50;90.60;;;;;;5095980;28;20214;-72
2023/12/02 06:03:49;;;;;;;7.05;4.90;;;2.50;90.60;;;;;;5096757;28;20532;-73
2023/12/02 06:06:19;;;;;;;8.13;4.90;;;2.40;90.50;;;;;;5096264;28;20643;-72
2023/12/02 06:08:46;;;;;;;7.80;5.63;;;2.50;90.50;;;;;;5096555;28;20221;-72
2023/12/02 06:11:13;;;;;;;9.52;5.85;;;2.50;90.30;;;;;;5096179;28;20182;-72
2023/12/02 06:13:40;;;;;;;14.10;7.32;;;2.40;90.30;;;;;;5096129;28;20209;-76
2023/12/02 06:16:07;;;;;;;8.60;5.30;;;2.40;90.40;;;;;;5095779;28;20221;-73
2023/12/02 06:18:34;;;;;;;7.85;4.95;;;2.40;90.50;;;;;;5096404;28;20229;-72
2023/12/02 06:21:01;;;;;;;8.05;5.45;;;2.40;90.50;;;;;;5096023;28;20567;-73
2023/12/02 06:23:29;;;;;;;9.55;5.70;;;2.40;90.50;;;;;;5096215;28;20201;-73
2023/12/02 06:25:56;;;;;;;11.68;7.80;;;2.40;90.60;;;;;;5095905;28;20648;-73
2023/12/02 06:28:23;;;;;;;11.13;6.50;;;2.40;90.50;;;;;;5096118;28;20227;-73
2023/12/02 06:30:50;;;;;;;9.80;5.18;;;2.40;90.50;;;;;;5095507;28;20221;-73
2023/12/02 06:33:17;;;;;;;9.05;5.90;;;2.40;90.50;;;;;;5095172;28;20349;-73
2023/12/02 06:35:45;;;;;;;7.03;4.78;;;2.40;90.60;;;;;;5095509;28;20221;-73
2023/12/02 06:38:12;;;;;;;19.20;10.63;;;2.30;90.50;;;;;;5095968;28;20254;-73
2023/12/02 06:40:40;;;;;;;11.98;7.60;;;2.30;90.60;;;;;;5095115;28;20656;-73
2023/12/02 06:43:07;;;;;;;10.05;6.45;;;2.30;90.50;;;;;;5095618;28;20244;-73
2023/12/02 06:45:35;;;;;;;8.90;5.82;;;2.30;90.60;;;;;;5095481;28;20679;-73
2023/12/02 06:48:02;;;;;;;8.05;5.10;;;2.40;90.50;;;;;;5096050;28;20552;-73
2023/12/02 06:50:29;;;;;;;7.45;4.93;;;2.40;90.50;;;;;;5094675;28;20632;-72
2023/12/02 06:52:55;;;;;;;190.82;52.25;;;2.40;90.50;;;;;;5095546;28;20646;-73
2023/12/02 06:55:22;;;;;;;19.50;9.23;;;2.30;90.30;;;;;;5095539;28;20228;-73
2023/12/02 06:57:51;;;;;;;11.68;7.20;;;2.40;90.40;;;;;;5095104;28;20225;-73
2023/12/02 07:00:19;;;;;;;11.13;6.18;;;2.40;90.30;;;;;;5094860;28;20283;-72
2023/12/02 07:02:46;;;;;;;9.50;7.03;;;2.30;90.20;;;;;;5095566;28;20185;-72
2023/12/02 07:05:13;;;;;;;9.27;7.25;;;2.30;90.10;;;;;;5095074;28;20232;-73
2023/12/02 07:07:40;;;;;;;12.20;6.97;;;2.30;90.20;;;;;;5095354;28;20272;-73
2023/12/02 07:10:09;;;;;;;8.48;5.88;;;2.30;90.20;;;;;;5095314;28;20215;-72
2023/12/02 07:12:36;;;;;;;9.85;6.50;;;2.30;90.30;;;;;;5094577;28;20205;-73
2023/12/02 07:15:06;;;;;;;10.05;6.75;;;2.30;90.40;;;;;;5095315;28;20228;-72
2023/12/02 07:17:33;;;;;;;12.05;7.05;;;2.30;90.40;;;;;;5094910;28;20663;-72
2023/12/02 07:20:00;;;;;;;9.32;5.72;;;2.30;90.20;;;;;;5095332;28;20194;-72
2023/12/02 07:22:27;;;;;;;9.35;6.55;;;2.30;90.10;;;;;;5094871;28;20193;-72
2023/12/02 07:24:54;;;;;;;10.77;7.88;;;2.40;90.00;;;;;;5094965;28;20196;-73
2023/12/02 07:27:21;;;;;;;10.98;7.05;;;2.40;89.70;;;;;;5094898;28;20221;-72
2023/12/02 07:29:48;;;;;;;14.60;6.75;;;2.30;89.70;;;;;;5094481;28;20224;-73
2023/12/02 07:32:17;;;;;;;39.15;13.27;;;2.30;89.70;;;;;;5094500;28;20263;-73
2023/12/02 07:34:44;;;;;;;18.67;7.82;;;2.30;89.60;;;;;;5094994;28;20224;-72
2023/12/02 07:37:11;;;;;;;10.25;6.97;;;2.30;89.40;;;;;;5094799;28;20601;-73
2023/12/02 07:39:37;;;;;;;14.65;8.38;;;2.40;89.30;;;;;;5094665;28;20241;-73
2023/12/02 07:42:05;;;;;;;10.95;7.88;;;2.30;89.30;;;;;;5092407;28;20207;-72
2023/12/02 07:44:32;;;;;;;11.82;7.80;;;2.30;89.40;;;;;;5093620;28;20236;-74
2023/12/02 07:46:59;;;;;;;20.83;10.63;;;2.40;89.60;;;;;;5094150;28;20193;-73
2023/12/02 07:49:28;;;;;;;11.65;7.70;;;2.30;89.40;;;;;;5093949;28;20216;-73
2023/12/02 07:51:55;;;;;;;27.27;17.55;;;2.40;89.60;;;;;;5092082;28;20209;-73
2023/12/02 07:54:22;;;;;;;12.32;9.77;;;2.40;89.20;;;;;;5093177;28;20190;-74
2023/12/02 07:56:49;;;;;;;10.57;7.00;;;2.40;89.00;;;;;;5093444;28;20615;-73
2023/12/02 07:59:16;;;;;;;12.27;8.38;;;2.50;88.90;;;;;;5092103;28;20600;-73
2023/12/02 08:01:43;;;;;;;14.55;10.95;;;2.50;89.00;;;;;;5092340;28;20263;-72
2023/12/02 08:04:10;;;;;;;12.70;8.73;;;2.50;88.60;;;;;;5093236;28;20228;-73
2023/12/02 08:06:39;;;;;;;22.40;14.23;;;2.50;88.50;;;;;;5093477;28;20190;-72
2023/12/02 08:09:06;;;;;;;14.20;10.70;;;2.50;88.30;;;;;;5092765;28;20201;-74
2023/12/02 08:11:33;;;;;;;21.88;14.32;;;2.50;88.30;;;;;;5092195;28;20217;-72
2023/12/02 08:14:00;;;;;;;26.08;15.23;;;2.60;88.30;;;;;;5092001;28;20234;-73
2023/12/02 08:16:28;;;;;;;43.97;24.80;;;2.60;88.10;;;;;;5092567;28;20272;-72
2023/12/02 08:18:55;;;;;;;44.03;27.85;;;2.60;87.70;;;;;;5092854;28;20228;-72
2023/12/02 08:21:22;;;;;;;14.27;10.68;;;2.70;87.40;;;;;;5092793;28;20230;-72
2023/12/02 08:23:50;;;;;;;13.88;9.80;;;2.70;87.00;;;;;;5092925;28;20276;-72
2023/12/02 08:26:17;;;;;;;11.95;10.20;;;2.80;86.40;;;;;;5092332;28;20221;-72
2023/12/02 08:28:46;;;;;;;16.25;13.00;;;2.80;85.90;;;;;;5092605;28;20224;-73
2023/12/02 08:31:13;;;;;;;12.98;9.82;;;2.80;85.50;;;;;;5092812;28;20208;-72
2023/12/02 08:33:40;;;;;;;15.30;10.95;;;2.80;85.40;;;;;;5092964;28;20700;-75
2023/12/02 08:36:08;;;;;;;15.85;9.50;;;2.80;84.80;;;;;;5091375;28;20181;-74
2023/12/02 08:38:34;;;;;;;18.48;11.82;;;2.80;84.50;;;;;;5092888;28;20213;-72
2023/12/02 08:41:03;;;;;;;14.95;9.90;;;2.70;84.40;;;;;;5092544;28;20217;-72
2023/12/02 08:43:30;;;;;;;12.52;8.15;;;2.80;84.70;;;;;;5092747;28;20221;-72
2023/12/02 08:45:57;;;;;;;17.00;10.27;;;2.80;84.50;;;;;;5092756;28;20217;-72
2023/12/02 08:48:24;;;;;;;16.40;10.15;;;2.80;84.70;;;;;;5093277;28;20246;-72
2023/12/02 08:50:51;;;;;;;33.97;16.10;;;2.80;84.90;;;;;;5093409;28;20185;-72
2023/12/02 08:53:18;;;;;;;18.95;11.40;;;2.80;85.70;;;;;;5093207;28;20213;-72
2023/12/02 08:55:45;;;;;;;12.88;8.95;;;2.80;84.10;;;;;;5092880;28;20228;-72
2023/12/02 08:58:14;;;;;;;10.35;8.68;;;2.90;84.20;;;;;;5092823;28;20193;-72
2023/12/02 09:00:41;;;;;;;11.60;8.07;;;2.90;84.20;;;;;;5092779;28;20726;-72
2023/12/02 09:03:08;;;;;;;14.43;8.27;;;2.90;84.30;;;;;;5093241;28;20588;-72
2023/12/02 09:05:35;;;;;;;10.20;6.68;;;2.90;84.20;;;;;;5093213;28;20232;-72
2023/12/02 09:08:02;;;;;;;13.82;9.98;;;2.90;84.60;;;;;;5092806;28;20194;-73
2023/12/02 09:10:29;;;;;;;10.40;8.38;;;2.90;84.50;;;;;;5092678;28;20195;-72
2023/12/02 09:12:55;;;;;;;14.00;9.25;;;3.00;84.30;;;;;;5092917;28;20251;-72
2023/12/02 09:15:45;;;;;;;11.95;8.90;;;3.00;83.50;;;;;;5093087;28;20596;-72
2023/12/02 09:18:14;;;;;;;13.82;8.73;;;3.00;83.70;;;;;;5086926;28;20185;-72
2023/12/02 09:20:46;;;;;;;13.55;8.73;;;3.10;83.70;;;;;;5093128;28;20197;-73
2023/12/02 09:23:14;;;;;;;13.00;7.93;;;3.20;83.50;;;;;;5093274;28;20190;-72
2023/12/02 09:25:42;;;;;;;12.90;8.50;;;3.20;83.50;;;;;;5093131;28;20611;-73
2023/12/02 09:28:29;;;;;;;10.57;6.90;;;3.20;82.80;;;;;;5093007;28;20497;-72
2023/12/02 09:31:03;;;;;;;12.00;8.00;;;3.20;82.30;;;;;;5092911;28;20265;-74
2023/12/02 09:33:30;;;;;;;11.13;7.32;;;3.30;82.20;;;;;;5092900;28;20208;-75
2023/12/02 09:36:01;;;;;;;9.75;6.20;;;3.30;81.90;;;;;;5092501;28;20189;-74
2023/12/02 09:38:29;;;;;;;22.25;11.18;;;3.30;82.20;;;;;;5093182;28;20231;-74
2023/12/02 09:41:19;;;;;;;12.23;7.95;;;3.30;82.90;;;;;;5092860;28;20186;-74
2023/12/02 09:43:55;;;;;;;9.25;6.40;;;3.30;82.70;;;;;;5090750;28;20177;-74
2023/12/02 09:46:33;;;;;;;28.15;20.42;;;3.30;82.30;;;;;;5091004;28;20178;-72
2023/12/02 09:49:26;;;;;;;109.40;36.97;;;3.20;82.40;;;;;;5089063;28;20186;-73
2023/12/02 09:52:22;;;;;;;18.42;14.10;;;3.20;82.60;;;;;;5091040;28;20178;-72
2023/12/02 09:54:54;;;;;;;11.40;9.73;;;3.30;82.40;;;;;;5079171;28;20221;-72
2023/12/02 09:57:32;;;;;;;15.27;10.63;;;3.30;82.00;;;;;;5089111;28;20221;-74
2023/12/02 10:00:12;;;;;;;14.13;9.10;;;3.30;80.70;;;;;;5091372;28;20232;-72
2023/12/02 10:03:04;;;;;;;10.38;7.43;;;3.30;79.40;;;;;;5092029;28;20265;-72
2023/12/02 10:05:40;;;;;;;12.75;9.65;;;3.30;78.60;;;;;;5091549;28;20250;-72
2023/12/02 10:08:16;;;;;;;13.27;10.43;;;3.30;78.50;;;;;;5091949;28;20185;-73
2023/12/02 10:10:48;;;;;;;11.05;7.88;;;3.30;78.80;;;;;;5094969;28;20177;-72
2023/12/02 10:13:21;;;;;;;10.75;7.50;;;3.30;79.00;;;;;;5095234;28;20689;-72
2023/12/02 10:15:50;;;;;;;11.30;8.07;;;3.30;79.30;;;;;;5094435;28;20178;-72
2023/12/02 10:18:23;;;;;;;12.77;8.98;;;3.30;79.60;;;;;;5094699;28;20185;-73
2023/12/02 10:21:00;;;;;;;18.83;12.65;;;3.30;79.60;;;;;;5095161;28;20180;-73
2023/12/02 10:23:32;;;;;;;13.77;9.23;;;3.30;79.70;;;;;;5095345;28;20189;-74
2023/12/02 10:26:06;;;;;;;16.75;12.00;;;3.30;79.00;;;;;;5094323;28;20186;-73
2023/12/02 10:28:46;;;;;;;12.40;10.95;;;3.30;78.50;;;;;;5094761;28;20222;-73
2023/12/02 10:31:25;;;;;;;16.75;12.02;;;3.30;78.10;;;;;;5091832;28;20181;-76
2023/12/02 10:34:05;;;;;;;13.70;11.45;;;3.30;78.30;;;;;;5092664;28;20201;-74
2023/12/02 10:36:34;;;;;;;13.52;9.20;;;3.30;78.60;;;;;;5094853;28;20181;-72
2023/12/02 10:39:07;;;;;;;11.25;8.10;;;3.30;78.40;;;;;;5094321;28;20193;-73
2023/12/02 10:41:40;;;;;;;14.52;9.85;;;3.40;78.50;;;;;;5094184;28;20174;-72
2023/12/02 10:44:08;;;;;;;18.48;11.45;;;3.40;78.70;;;;;;5094659;28;20675;-72
2023/12/02 10:46:39;;;;;;;12.13;9.02;;;3.50;78.30;;;;;;5094770;28;20228;-72
2023/12/02 10:49:08;;;;;;;12.18;8.80;;;3.60;77.70;;;;;;5093862;28;20757;-72
2023/12/02 10:51:40;;;;;;;11.60;8.00;;;3.80;79.80;;;;;;5089793;28;20214;-73
2023/12/02 10:54:09;;;;;;;13.38;8.90;;;3.90;78.80;;;;;;5089411;28;20292;-73
2023/12/02 10:56:39;;;;;;;13.02;8.00;;;4.00;76.70;;;;;;5094466;28;20213;-73
2023/12/02 10:59:07;;;;;;;12.55;8.63;;;4.00;75.30;;;;;;5091764;28;20651;-72
2023/12/02 11:01:40;;;;;;;13.55;8.73;;;4.00;75.00;;;;;;5085299;28;20232;-73
2023/12/02 11:04:18;;;;;;;12.95;8.70;;;4.00;75.00;;;;;;5082265;28;20236;-72
2023/12/02 11:06:51;;;;;;;14.43;8.80;;;3.90;74.50;;;;;;5092958;28;20636;-74
2023/12/02 11:09:26;;;;;;;13.70;8.80;;;3.90;74.90;;;;;;5079597;28;20184;-72
2023/12/02 11:12:03;;;;;;;12.10;8.75;;;3.90;74.80;;;;;;5094626;28;20177;-73
2023/12/02 11:14:38;;;;;;;14.98;10.30;;;3.80;74.10;;;;;;5093376;28;20201;-72
2023/12/02 11:17:11;;;;;;;86.57;52.05;;;3.80;74.00;;;;;;5093378;28;20255;-73
2023/12/02 11:19:56;;;;;;;83.35;50.88;;;3.80;74.10;;;;;;5093087;28;20736;-72
2023/12/02 11:22:51;;;;;;;28.05;20.35;;;3.70;74.20;;;;;;5094653;28;20232;-72
2023/12/02 11:25:35;;;;;;;17.90;12.48;;;3.70;74.50;;;;;;5093955;28;20235;-72
2023/12/02 11:28:12;;;;;;;14.55;9.20;;;3.80;74.70;;;;;;5094068;28;20272;-73
2023/12/02 11:30:55;;;;;;;18.10;10.90;;;3.80;73.90;;;;;;5094205;28;20220;-72
2023/12/02 11:33:34;;;;;;;14.73;10.63;;;3.80;73.00;;;;;;5092560;28;20201;-73
2023/12/02 11:36:11;;;;;;;32.20;16.08;;;3.70;72.40;;;;;;5093209;28;20213;-73
2023/12/02 11:38:48;;;;;;;17.45;10.45;;;3.70;72.70;;;;;;5091542;28;20189;-73
2023/12/02 11:41:25;;;;;;;17.77;11.23;;;3.70;72.50;;;;;;5072110;28;20589;-73
2023/12/02 11:44:04;;;;;;;12.75;9.13;;;3.70;71.90;;;;;;5073113;28;20182;-72
2023/12/02 11:46:45;;;;;;;15.43;10.68;;;3.70;72.20;;;;;;5072238;28;20240;-75
2023/12/02 11:49:25;;;;;;;13.82;8.35;;;3.70;72.70;;;;;;5072993;28;20237;-72
2023/12/02 11:52:03;;;;;;;13.07;8.93;;;3.60;71.30;;;;;;5092941;28;20213;-73
2023/12/02 11:54:44;;;;;;;13.85;9.43;;;3.60;71.50;;;;;;5081844;28;20293;-72
2023/12/02 11:57:21;;;;;;;12.60;8.40;;;3.60;72.00;;;;;;5073422;28;20597;-72
2023/12/02 12:00:06;;;;;;;14.32;9.13;;;3.50;71.90;;;;;;5086254;28;20243;-72
2023/12/02 12:02:56;;;;;;;19.02;13.95;;;3.50;72.00;;;;;;5092875;28;20232;-72
2023/12/02 12:05:37;;;;;;;23.80;18.90;;;3.50;72.30;;;;;;5092746;28;20528;-73
2023/12/02 12:08:13;;;;;;;27.08;21.98;;;3.40;72.80;;;;;;5091971;28;20269;-72
2023/12/02 12:10:41;;;;;;;16.10;11.85;;;3.40;73.40;;;;;;5085817;28;20257;-73
2023/12/02 12:13:11;;;;;;;21.60;15.73;;;3.40;73.70;;;;;;5088861;28;20197;-72
2023/12/02 12:15:39;;;;;;;20.98;15.23;;;3.30;74.10;;;;;;5091902;28;20660;-72
2023/12/02 12:18:08;;;;;;;15.95;12.10;;;3.30;74.60;;;;;;5072582;28;20190;-72
2023/12/02 12:20:36;;;;;;;29.13;20.65;;;3.30;74.80;;;;;;5090481;28;20261;-72
2023/12/02 12:23:03;;;;;;;18.70;12.15;;;3.30;75.80;;;;;;5092017;28;20221;-71
2023/12/02 12:25:32;;;;;;;16.98;13.20;;;3.30;74.70;;;;;;5087309;28;20706;-72
2023/12/02 12:28:03;;;;;;;16.73;11.60;;;3.30;74.60;;;;;;5072322;28;20201;-73
2023/12/02 12:30:42;;;;;;;22.13;15.50;;;3.20;74.80;;;;;;5072421;28;20183;-72
2023/12/02 12:33:13;;;;;;;12.45;8.68;;;3.20;74.90;;;;;;5072077;28;20188;-73
2023/12/02 12:35:41;;;;;;;17.20;10.57;;;3.20;74.90;;;;;;5091928;28;20262;-72
2023/12/02 12:38:09;;;;;;;15.48;10.68;;;3.20;74.70;;;;;;5092217;28;20238;-72
2023/12/02 12:40:40;;;;;;;15.07;10.05;;;3.30;75.20;;;;;;5091120;28;20181;-73
2023/12/02 12:43:08;;;;;;;13.52;9.00;;;3.20;75.00;;;;;;5092332;28;20174;-73
2023/12/02 12:45:35;;;;;;;12.70;9.93;;;3.20;74.90;;;;;;5091651;28;20188;-72
2023/12/02 12:48:05;;;;;;;14.88;12.18;;;3.20;75.10;;;;;;5092102;28;20228;-73
2023/12/02 12:50:32;;;;;;;16.92;12.20;;;3.20;74.90;;;;;;5091707;28;20268;-72
2023/12/02 12:53:09;;;;;;;22.98;17.73;;;3.10;74.70;;;;;;5091830;28;20231;-72
2023/12/02 12:55:43;;;;;;;21.70;15.98;;;3.10;75.30;;;;;;5092040;28;20251;-73
2023/12/02 12:58:15;;;;;;;18.15;13.57;;;3.10;75.60;;;;;;5092650;28;20179;-72
2023/12/02 13:00:50;;;;;;;50.47;23.08;;;3.10;75.40;;;;;;5090593;28;21009;-75